Maryneal, Texas
Current Conditions -  °F | °C
As of 5:55 PM on Friday 28 Nov 2014 (Local Time) from KSWW Reporting Station
Clear Clear  
Wind Chill: 65°   Ceiling: Unl
Heat Index: 65°   Visibility: 10mi
Dew Point: 32°   Wind: 14mph
Humidity: 29%   Direction: 190°S
Pressure: 30.03"   Gusts: NA
Location:  32.24°N, 100.45°W
Report Text: KSWW 282355Z AUTO 19012KT 10SM CLR 19/00 A3003 RMK AO2 T01860000 10233 20185
Loading
Personal Weather Stations






























Interactive Weather Map New forecast layout! Learn more

10-Day Weather Forecast

Advertisements
Track Severe Weather on mobile